createdAt,value
2023-05-05T00:01:38.334Z,14.00
2023-05-05T00:04:05.790Z,14.00
2023-05-05T00:06:33.566Z,14.00
2023-05-05T00:09:00.939Z,14.00
2023-05-05T00:11:28.315Z,14.00
2023-05-05T00:13:55.713Z,14.00
2023-05-05T00:16:23.484Z,14.00
2023-05-05T00:18:50.829Z,14.00
2023-05-05T00:21:18.131Z,14.00
2023-05-05T00:23:45.522Z,14.00
2023-05-05T00:26:13.010Z,14.00
2023-05-05T00:28:40.301Z,14.00
2023-05-05T00:31:07.969Z,14.00
2023-05-05T00:33:36.625Z,14.00
2023-05-05T00:36:09.963Z,13.90
2023-05-05T00:38:38.304Z,13.90
2023-05-05T00:41:05.654Z,13.90
2023-05-05T00:43:32.950Z,13.90
2023-05-05T00:46:02.001Z,13.90
2023-05-05T00:48:32.576Z,13.90
2023-05-05T00:50:59.900Z,13.90
2023-05-05T00:53:27.859Z,13.90
2023-05-05T00:55:55.136Z,13.90
2023-05-05T00:58:22.885Z,13.90
2023-05-05T01:00:50.604Z,13.80
2023-05-05T01:03:18.013Z,13.80
2023-05-05T01:05:55.640Z,13.70
2023-05-05T01:08:35.203Z,13.70
2023-05-05T01:11:05.749Z,13.70
2023-05-05T01:13:42.686Z,13.60
2023-05-05T01:16:13.229Z,13.60
2023-05-05T01:18:45.767Z,13.60
2023-05-05T01:21:14.703Z,13.40
2023-05-05T01:23:54.316Z,13.60
2023-05-05T01:26:36.720Z,13.60
2023-05-05T01:29:17.694Z,13.60
2023-05-05T01:31:52.039Z,13.60
2023-05-05T01:34:23.188Z,13.60
2023-05-05T01:36:55.428Z,13.60
2023-05-05T01:39:24.456Z,13.60
2023-05-05T01:41:53.784Z,13.50
2023-05-05T01:44:21.883Z,13.50
2023-05-05T01:46:51.536Z,13.50
2023-05-05T01:49:19.091Z,13.50
2023-05-05T01:51:49.689Z,13.50
2023-05-05T01:54:18.713Z,13.50
2023-05-05T01:56:46.391Z,13.50
2023-05-05T01:59:13.686Z,13.50
2023-05-05T02:01:44.637Z,13.40
2023-05-05T02:04:12.908Z,13.40
2023-05-05T02:06:41.148Z,13.30
2023-05-05T02:09:11.717Z,13.30
2023-05-05T02:11:39.507Z,13.30
2023-05-05T02:14:07.867Z,13.20
2023-05-05T02:16:36.518Z,13.30
2023-05-05T02:19:06.747Z,13.30
2023-05-05T02:21:34.243Z,13.30
2023-05-05T02:24:01.770Z,13.30
2023-05-05T02:26:29.671Z,13.30
2023-05-05T02:29:07.637Z,13.30
2023-05-05T02:31:38.964Z,13.30
2023-05-05T02:34:07.261Z,13.30
2023-05-05T02:36:37.833Z,13.30
2023-05-05T02:39:09.748Z,13.30
2023-05-05T02:41:38.222Z,13.30
2023-05-05T02:44:06.569Z,13.30
2023-05-05T02:46:33.974Z,13.30
2023-05-05T02:49:01.298Z,13.20
2023-05-05T02:51:28.859Z,13.20
2023-05-05T02:53:56.355Z,13.10
2023-05-05T02:56:30.319Z,13.20
2023-05-05T02:59:04.375Z,13.10
2023-05-05T03:01:40.655Z,13.20
2023-05-05T03:04:11.582Z,13.20
2023-05-05T03:06:41.743Z,13.20
2023-05-05T03:09:12.013Z,13.20
2023-05-05T03:11:59.104Z,13.20
2023-05-05T03:14:27.516Z,13.20
2023-05-05T03:16:55.155Z,13.20
2023-05-05T03:19:23.285Z,13.20
2023-05-05T03:21:50.724Z,13.20
2023-05-05T03:24:19.053Z,13.20
2023-05-05T03:26:47.125Z,13.20
2023-05-05T03:29:14.910Z,13.20
2023-05-05T03:31:42.287Z,13.20
2023-05-05T03:34:09.639Z,13.20
2023-05-05T03:36:37.119Z,13.30
2023-05-05T03:39:04.659Z,13.30
2023-05-05T03:41:32.036Z,13.30
2023-05-05T03:43:59.352Z,13.30
2023-05-05T03:46:26.602Z,13.30
2023-05-05T03:48:56.993Z,13.30
2023-05-05T03:51:24.656Z,13.30
2023-05-05T03:53:51.993Z,13.30
2023-05-05T03:56:19.278Z,13.30
2023-05-05T03:58:46.565Z,13.30
2023-05-05T04:01:13.926Z,13.30
2023-05-05T04:03:41.349Z,13.20
2023-05-05T04:06:08.711Z,13.30
2023-05-05T04:08:36.131Z,13.30
2023-05-05T04:11:03.476Z,13.30
2023-05-05T04:13:31.128Z,13.30
2023-05-05T04:15:59.814Z,13.20
2023-05-05T04:18:27.116Z,13.20
2023-05-05T04:20:54.358Z,13.20
2023-05-05T04:23:21.597Z,13.30
2023-05-05T04:25:48.980Z,13.30
2023-05-05T04:28:16.438Z,13.30
2023-05-05T04:30:43.706Z,13.30
2023-05-05T04:33:11.228Z,13.30
2023-05-05T04:35:38.524Z,13.30
2023-05-05T04:38:05.862Z,13.30
2023-05-05T04:40:33.189Z,13.30
2023-05-05T04:43:00.526Z,13.30
2023-05-05T04:45:27.891Z,13.20
2023-05-05T04:47:55.280Z,13.20
2023-05-05T04:50:22.700Z,13.20
2023-05-05T04:52:51.383Z,13.20
2023-05-05T04:55:19.985Z,13.10
2023-05-05T04:57:47.281Z,13.10
2023-05-05T05:00:14.682Z,13.20
2023-05-05T05:02:41.994Z,13.10
2023-05-05T05:05:09.713Z,13.10
2023-05-05T05:07:36.995Z,13.10
2023-05-05T05:10:04.492Z,13.10
2023-05-05T05:12:31.856Z,13.10
2023-05-05T05:14:59.141Z,13.10
2023-05-05T05:17:26.929Z,13.10
2023-05-05T05:19:55.362Z,13.10
2023-05-05T05:22:22.857Z,13.10
2023-05-05T05:24:50.324Z,13.20
2023-05-05T05:27:17.654Z,13.20
2023-05-05T05:29:44.894Z,13.20
2023-05-05T05:32:12.264Z,13.30
2023-05-05T05:34:39.551Z,13.30
2023-05-05T05:37:06.635Z,13.40
2023-05-05T05:39:33.694Z,13.40
2023-05-05T05:42:01.092Z,13.40
2023-05-05T05:44:28.390Z,13.40
2023-05-05T05:46:56.211Z,13.40
2023-05-05T05:49:23.523Z,13.40
2023-05-05T05:51:50.762Z,13.50
2023-05-05T05:54:18.057Z,13.50
2023-05-05T05:56:45.623Z,13.50
2023-05-05T05:59:12.918Z,13.60
2023-05-05T06:01:40.501Z,13.60
2023-05-05T06:04:07.968Z,13.60
2023-05-05T06:06:35.380Z,13.60
2023-05-05T06:09:02.673Z,13.60
2023-05-05T06:11:30.178Z,13.70
2023-05-05T06:13:57.414Z,13.70
2023-05-05T06:16:24.865Z,13.70
2023-05-05T06:18:52.197Z,13.70
2023-05-05T06:21:20.658Z,13.70
2023-05-05T06:23:47.981Z,13.70
2023-05-05T06:26:15.240Z,13.70
2023-05-05T06:28:42.715Z,13.80
2023-05-05T06:31:10.163Z,13.80
2023-05-05T06:33:37.468Z,13.80
2023-05-05T06:36:04.984Z,13.80
2023-05-05T06:38:32.266Z,13.90
2023-05-05T06:40:59.572Z,13.80
2023-05-05T06:43:28.264Z,13.80
2023-05-05T06:45:55.680Z,13.90
2023-05-05T06:48:23.076Z,13.90
2023-05-05T06:50:50.336Z,14.00
2023-05-05T06:53:17.606Z,14.00
2023-05-05T06:55:45.962Z,14.00
2023-05-05T06:58:14.201Z,14.10
2023-05-05T07:00:42.233Z,14.10
2023-05-05T07:03:09.620Z,14.10
2023-05-05T07:05:37.532Z,14.20
2023-05-05T07:08:05.191Z,14.20
2023-05-05T07:10:32.765Z,14.30
2023-05-05T07:13:00.185Z,14.30
2023-05-05T07:15:29.654Z,14.30
2023-05-05T07:17:57.373Z,14.30
2023-05-05T07:20:25.217Z,14.30
2023-05-05T07:22:52.701Z,14.30
2023-05-05T07:25:20.099Z,14.30
2023-05-05T07:27:47.436Z,14.30
2023-05-05T07:30:18.085Z,14.30
2023-05-05T07:32:46.722Z,14.40
2023-05-05T07:35:14.037Z,14.40
2023-05-05T07:37:41.330Z,14.40
2023-05-05T07:40:09.038Z,14.40
2023-05-05T07:42:36.908Z,14.40
2023-05-05T07:45:04.745Z,14.40
2023-05-05T07:47:32.159Z,14.40
2023-05-05T07:49:59.498Z,14.30
2023-05-05T07:52:43.610Z,14.30
2023-05-05T07:55:12.232Z,14.40
2023-05-05T07:57:40.754Z,14.40
2023-05-05T08:00:09.354Z,14.50
2023-05-05T08:02:37.022Z,14.50
2023-05-05T08:05:05.220Z,14.60
2023-05-05T08:07:32.694Z,14.60
2023-05-05T08:10:00.037Z,14.60
2023-05-05T08:12:27.322Z,14.70
2023-05-05T08:14:54.590Z,14.70
2023-05-05T08:17:21.865Z,14.70
2023-05-05T08:19:51.565Z,14.70
2023-05-05T08:22:19.052Z,14.70
2023-05-05T08:24:46.575Z,14.80
2023-05-05T08:27:14.183Z,14.90
2023-05-05T08:29:41.528Z,14.90
2023-05-05T08:32:08.885Z,15.00
2023-05-05T08:34:36.259Z,15.10
2023-05-05T08:37:03.579Z,15.30
2023-05-05T08:39:31.214Z,15.30
2023-05-05T08:41:58.514Z,15.40
2023-05-05T08:44:27.014Z,15.40
2023-05-05T08:46:54.783Z,15.50
2023-05-05T08:49:22.597Z,15.50
2023-05-05T08:51:52.139Z,15.60
2023-05-05T08:54:20.101Z,15.70
2023-05-05T08:56:49.636Z,15.60
2023-05-05T08:59:17.454Z,15.60
2023-05-05T09:01:45.050Z,15.80
2023-05-05T09:04:12.414Z,15.90
2023-05-05T09:06:39.831Z,15.90
2023-05-05T09:09:08.201Z,16.10
2023-05-05T09:11:36.127Z,16.30
2023-05-05T09:16:48.308Z,16.40
2023-05-05T09:19:15.735Z,16.40
2023-05-05T09:21:49.570Z,16.40
2023-05-05T09:24:16.918Z,16.40
2023-05-05T09:26:47.758Z,16.30
2023-05-05T09:29:21.429Z,16.30
2023-05-05T09:32:08.882Z,16.30
2023-05-05T09:34:37.307Z,16.20
2023-05-05T09:37:06.025Z,16.10
2023-05-05T09:39:33.447Z,16.10
2023-05-05T09:42:02.969Z,16.10
2023-05-05T09:44:35.021Z,16.20
2023-05-05T09:47:05.256Z,16.20
2023-05-05T09:49:36.264Z,16.20
2023-05-05T09:52:15.096Z,16.30
2023-05-05T09:54:43.229Z,16.40
2023-05-05T09:57:25.560Z,16.30
2023-05-05T09:59:54.631Z,16.40
2023-05-05T10:02:29.572Z,16.40
2023-05-05T10:05:06.615Z,16.50
2023-05-05T10:07:34.856Z,16.60
2023-05-05T10:10:07.320Z,16.80
2023-05-05T10:12:36.148Z,16.90
2023-05-05T10:15:07.612Z,17.10
2023-05-05T10:17:42.572Z,17.10
2023-05-05T10:20:16.144Z,17.00
2023-05-05T10:22:50.109Z,17.20
2023-05-05T10:25:17.953Z,17.30
2023-05-05T10:27:46.757Z,17.30
2023-05-05T10:30:18.051Z,17.20
2023-05-05T10:35:16.596Z,17.10
2023-05-05T10:37:44.629Z,17.10
2023-05-05T10:40:12.672Z,17.20
2023-05-05T10:42:40.172Z,17.30
2023-05-05T10:45:07.982Z,17.30
2023-05-05T10:47:36.414Z,17.20
2023-05-05T10:50:11.353Z,17.10
2023-05-05T10:52:42.123Z,17.10
2023-05-05T10:55:12.837Z,17.00
2023-05-05T10:57:41.750Z,16.90
2023-05-05T11:00:09.597Z,16.90
2023-05-05T11:02:40.139Z,16.90
2023-05-05T11:05:18.234Z,16.90
2023-05-05T11:07:46.533Z,16.80
2023-05-05T11:10:14.626Z,16.90
2023-05-05T11:12:54.095Z,17.00
2023-05-05T11:15:27.639Z,17.50
2023-05-05T11:17:58.552Z,17.90
2023-05-05T11:20:34.942Z,18.10
2023-05-05T11:23:02.239Z,18.30
2023-05-05T11:25:42.158Z,18.80
2023-05-05T11:28:10.624Z,18.70
2023-05-05T11:30:59.661Z,18.20
2023-05-05T11:33:31.024Z,17.70
2023-05-05T11:35:59.611Z,17.40
2023-05-05T11:38:33.250Z,17.10
2023-05-05T11:41:05.635Z,17.00
2023-05-05T11:43:33.437Z,16.70
2023-05-05T11:46:11.795Z,16.60
2023-05-05T11:48:49.246Z,16.60
2023-05-05T11:51:17.369Z,16.50
2023-05-05T11:53:46.559Z,16.40
2023-05-05T11:56:18.977Z,16.30
2023-05-05T11:58:46.810Z,16.30
2023-05-05T12:01:14.627Z,16.40
2023-05-05T12:03:42.564Z,16.70
2023-05-05T12:06:09.971Z,17.10
2023-05-05T12:08:37.265Z,17.30
2023-05-05T12:11:08.292Z,17.30
2023-05-05T12:13:35.840Z,17.40
2023-05-05T12:16:09.992Z,17.80
2023-05-05T12:18:37.313Z,18.20
2023-05-05T12:21:16.858Z,18.40
2023-05-05T12:23:44.848Z,18.10
2023-05-05T12:26:29.077Z,18.00
2023-05-05T12:28:57.348Z,17.90
2023-05-05T12:31:37.517Z,17.80
2023-05-05T12:34:06.258Z,17.70
2023-05-05T12:36:34.065Z,17.80
2023-05-05T12:39:01.737Z,18.40
2023-05-05T12:41:29.647Z,18.70
2023-05-05T12:43:58.256Z,18.70
2023-05-05T12:46:26.551Z,18.80
2023-05-05T12:49:20.290Z,18.80
2023-05-05T12:51:54.154Z,18.80
2023-05-05T12:54:23.799Z,19.00
2023-05-05T12:56:51.332Z,19.20
2023-05-05T12:59:21.688Z,19.00
2023-05-05T13:01:52.254Z,18.80
2023-05-05T13:04:20.217Z,18.80
2023-05-05T13:06:48.764Z,19.10
2023-05-05T13:09:28.157Z,19.70
2023-05-05T13:11:55.621Z,19.70
2023-05-05T13:14:23.272Z,19.50
2023-05-05T13:16:50.616Z,19.20
2023-05-05T13:19:17.879Z,19.00
2023-05-05T13:21:45.199Z,18.90
2023-05-05T13:24:26.062Z,19.40
2023-05-05T13:26:56.602Z,19.90
2023-05-05T13:29:28.341Z,20.50
2023-05-05T13:31:57.881Z,21.30
2023-05-05T13:34:25.256Z,21.60
2023-05-05T13:36:52.685Z,21.40
2023-05-05T13:39:20.095Z,21.50
2023-05-05T13:41:47.521Z,21.30
2023-05-05T13:44:14.882Z,20.80
2023-05-05T13:46:42.874Z,20.80
2023-05-05T13:49:10.604Z,21.30
2023-05-05T13:51:39.012Z,21.30
2023-05-05T13:54:06.888Z,21.60
2023-05-05T13:56:34.758Z,21.80
2023-05-05T13:59:02.447Z,22.10
2023-05-05T14:01:30.391Z,22.40
2023-05-05T14:03:58.160Z,22.10
2023-05-05T14:06:26.012Z,22.00
2023-05-05T14:08:53.490Z,21.60
2023-05-05T14:11:21.014Z,21.20
2023-05-05T14:13:48.965Z,21.60
2023-05-05T14:16:16.291Z,21.60
2023-05-05T14:18:43.665Z,21.30
2023-05-05T14:21:11.293Z,21.00
2023-05-05T14:23:38.537Z,21.40
2023-05-05T14:26:05.899Z,21.50
2023-05-05T14:28:33.251Z,21.40
2023-05-05T14:31:00.563Z,21.10
2023-05-05T14:33:27.914Z,20.40
2023-05-05T14:35:55.360Z,20.00
2023-05-05T14:38:22.716Z,19.60
2023-05-05T14:40:50.424Z,19.30
2023-05-05T14:43:17.925Z,19.00
2023-05-05T14:45:45.331Z,19.10
2023-05-05T14:48:12.600Z,19.50
2023-05-05T14:50:42.251Z,20.20
2023-05-05T14:53:09.544Z,20.60
2023-05-05T14:55:37.184Z,20.80
2023-05-05T14:58:04.494Z,20.90
2023-05-05T15:00:31.885Z,20.70
2023-05-05T15:02:59.290Z,20.70
2023-05-05T15:08:59.461Z,20.50
2023-05-05T15:11:26.870Z,20.20
2023-05-05T15:13:54.142Z,20.10
2023-05-05T15:16:21.740Z,20.10
2023-05-05T15:19:16.864Z,19.80
2023-05-05T15:21:44.160Z,19.80
2023-05-05T15:24:11.469Z,19.90
2023-05-05T15:26:38.742Z,20.00
2023-05-05T15:29:09.197Z,19.90
2023-05-05T15:31:36.573Z,19.90
2023-05-05T15:34:04.154Z,19.70
2023-05-05T15:36:32.556Z,19.70
2023-05-05T15:39:00.426Z,19.60
2023-05-05T15:41:29.668Z,19.40
2023-05-05T15:44:00.796Z,19.40
2023-05-05T15:46:33.371Z,19.70
2023-05-05T15:49:00.818Z,19.80
2023-05-05T15:51:29.315Z,19.70
2023-05-05T15:53:57.494Z,19.60
2023-05-05T15:56:27.568Z,19.60
2023-05-05T15:58:55.419Z,19.30
2023-05-05T16:01:23.328Z,19.30
2023-05-05T16:03:54.183Z,19.40
2023-05-05T16:06:26.740Z,19.40
2023-05-05T16:08:56.656Z,19.50
2023-05-05T16:11:26.022Z,19.50
2023-05-05T16:13:54.105Z,19.40
2023-05-05T16:16:22.946Z,19.20
2023-05-05T16:18:51.343Z,19.20
2023-05-05T16:21:20.453Z,19.10
2023-05-05T16:23:51.830Z,19.20
2023-05-05T16:26:25.007Z,19.10
2023-05-05T16:28:52.696Z,19.00
2023-05-05T16:31:20.694Z,19.10
2023-05-05T16:33:49.045Z,19.00
2023-05-05T16:36:20.015Z,19.10
2023-05-05T16:38:51.064Z,19.20
2023-05-05T16:41:19.129Z,19.20
2023-05-05T16:43:47.637Z,18.90
2023-05-05T16:46:15.704Z,18.80
2023-05-05T16:48:43.008Z,18.70
2023-05-05T16:51:11.447Z,18.60
2023-05-05T16:53:43.102Z,18.70
2023-05-05T16:56:13.574Z,18.70
2023-05-05T16:58:42.130Z,18.70
2023-05-05T17:01:10.227Z,18.70
2023-05-05T17:03:39.639Z,18.70
2023-05-05T17:06:13.797Z,18.60
2023-05-05T17:08:42.746Z,18.50
2023-05-05T17:11:14.948Z,18.50
2023-05-05T17:13:43.770Z,18.40
2023-05-05T17:16:12.058Z,18.30
2023-05-05T17:18:39.519Z,18.30
2023-05-05T17:21:07.154Z,18.30
2023-05-05T17:23:35.225Z,18.30
2023-05-05T17:26:06.155Z,18.30
2023-05-05T17:28:34.922Z,18.30
2023-05-05T17:31:06.744Z,18.30
2023-05-05T17:33:36.375Z,18.30
2023-05-05T17:36:03.718Z,18.30
2023-05-05T17:38:31.003Z,18.20
2023-05-05T17:40:59.529Z,18.20
2023-05-05T17:43:27.961Z,18.20
2023-05-05T17:45:55.806Z,18.30
2023-05-05T17:48:24.050Z,18.30
2023-05-05T17:50:51.343Z,18.30
2023-05-05T17:53:19.031Z,18.30
2023-05-05T17:55:46.464Z,18.30
2023-05-05T17:58:17.220Z,18.20
2023-05-05T18:00:45.604Z,18.20
2023-05-05T18:03:14.520Z,18.20
2023-05-05T18:05:42.357Z,18.20
2023-05-05T18:08:11.254Z,18.10
2023-05-05T18:10:38.508Z,18.00
2023-05-05T18:13:06.174Z,17.90
2023-05-05T18:15:33.696Z,17.80
2023-05-05T18:18:01.142Z,17.80
2023-05-05T18:20:28.395Z,17.70
2023-05-05T18:22:55.957Z,17.80
2023-05-05T18:25:23.484Z,17.80
2023-05-05T18:27:53.410Z,17.70
2023-05-05T18:30:21.016Z,17.70
2023-05-05T18:32:49.079Z,17.60
2023-05-05T18:35:22.566Z,17.60
2023-05-05T18:37:51.554Z,17.70
2023-05-05T18:40:19.635Z,17.60
2023-05-05T18:42:48.027Z,17.60
2023-05-05T18:45:16.638Z,17.60
2023-05-05T18:47:44.242Z,17.50
2023-05-05T18:50:14.235Z,17.50
2023-05-05T18:53:06.087Z,17.40
2023-05-05T18:55:49.344Z,17.40
2023-05-05T18:58:20.145Z,17.40
2023-05-05T19:00:48.780Z,17.30
2023-05-05T19:03:16.618Z,17.30
2023-05-05T19:05:43.976Z,17.20
2023-05-05T19:08:11.627Z,17.20
2023-05-05T19:10:41.766Z,17.10
2023-05-05T19:13:23.716Z,17.10
2023-05-05T19:16:11.205Z,17.20
2023-05-05T19:18:58.826Z,17.10
2023-05-05T19:21:40.649Z,17.00
2023-05-05T19:24:25.437Z,17.00
2023-05-05T19:27:15.449Z,17.00
2023-05-05T19:30:01.824Z,17.00
2023-05-05T19:32:40.569Z,17.00
2023-05-05T19:35:17.230Z,16.90
2023-05-05T19:37:47.079Z,16.90
2023-05-05T19:40:20.981Z,16.90
2023-05-05T19:43:02.749Z,16.80
2023-05-05T19:45:50.574Z,16.30
2023-05-05T19:48:32.693Z,15.60
2023-05-05T19:51:14.432Z,15.20
2023-05-05T19:53:56.148Z,15.00
2023-05-05T19:56:37.865Z,14.80
2023-05-05T19:59:19.549Z,14.70
2023-05-05T20:02:01.278Z,14.70
2023-05-05T20:04:43.089Z,14.70
2023-05-05T20:07:24.957Z,14.70
2023-05-05T20:10:07.355Z,14.70
2023-05-05T20:12:50.189Z,14.80
2023-05-05T20:15:33.176Z,14.80
2023-05-05T20:18:15.707Z,14.90
2023-05-05T20:20:58.970Z,14.90
2023-05-05T20:23:42.809Z,15.00
2023-05-05T20:26:24.847Z,15.00
2023-05-05T20:29:08.702Z,15.00
2023-05-05T20:31:51.882Z,14.90
2023-05-05T20:34:35.011Z,14.90
2023-05-05T20:37:18.119Z,14.80
2023-05-05T20:40:01.360Z,14.80
2023-05-05T20:42:44.149Z,14.70
2023-05-05T20:45:26.719Z,14.70
2023-05-05T20:48:14.985Z,14.70
2023-05-05T20:51:03.779Z,14.70
2023-05-05T20:53:47.291Z,14.60
2023-05-05T20:56:36.002Z,14.60
2023-05-05T20:59:25.302Z,14.60
2023-05-05T21:01:55.126Z,14.60
2023-05-05T21:04:26.576Z,14.50
2023-05-05T21:07:06.414Z,14.50
2023-05-05T21:09:38.402Z,14.50
2023-05-05T21:12:07.782Z,14.50
2023-05-05T21:14:43.346Z,14.50
2023-05-05T21:17:11.532Z,14.50
2023-05-05T21:19:39.338Z,14.50
2023-05-05T21:22:06.679Z,14.40
2023-05-05T21:24:37.562Z,14.40
2023-05-05T21:27:06.978Z,14.40
2023-05-05T21:29:37.922Z,14.40
2023-05-05T21:32:07.050Z,14.30
2023-05-05T21:34:38.389Z,14.30
2023-05-05T21:37:12.017Z,14.30
2023-05-05T21:39:39.467Z,14.30
2023-05-05T21:42:07.070Z,14.20
2023-05-05T21:44:38.414Z,14.20
2023-05-05T21:47:08.252Z,14.20
2023-05-05T21:49:36.266Z,14.10
2023-05-05T21:52:04.404Z,14.10
2023-05-05T21:54:33.221Z,14.10
2023-05-05T21:57:03.401Z,14.10
2023-05-05T21:59:38.334Z,14.10
2023-05-05T22:02:07.759Z,14.10
2023-05-05T22:04:39.893Z,14.10
2023-05-05T22:07:12.572Z,14.10
2023-05-05T22:09:41.459Z,14.10
2023-05-05T22:12:16.577Z,14.00
2023-05-05T22:14:45.496Z,14.00
2023-05-05T22:17:13.051Z,14.00
2023-05-05T22:19:40.559Z,14.00
2023-05-05T22:22:07.862Z,14.00
2023-05-05T22:24:35.188Z,14.00
2023-05-05T22:27:02.520Z,14.00
2023-05-05T22:29:29.886Z,14.00
2023-05-05T22:31:57.244Z,13.90
2023-05-05T22:34:25.793Z,13.90
2023-05-05T22:36:53.062Z,13.90
2023-05-05T22:39:20.374Z,13.80
2023-05-05T22:41:47.630Z,13.90
2023-05-05T22:44:15.111Z,13.90
2023-05-05T22:46:42.473Z,13.80
2023-05-05T22:49:09.957Z,13.70
2023-05-05T22:51:37.493Z,13.70
2023-05-05T22:54:04.927Z,13.90
2023-05-05T22:56:32.427Z,13.70
2023-05-05T22:58:59.766Z,13.70
2023-05-05T23:01:27.097Z,13.70
2023-05-05T23:03:54.515Z,13.70
2023-05-05T23:06:21.807Z,13.80
2023-05-05T23:08:49.446Z,13.80
2023-05-05T23:11:16.803Z,13.70
2023-05-05T23:13:44.132Z,13.70
2023-05-05T23:16:11.441Z,13.80
2023-05-05T23:18:38.910Z,13.80
2023-05-05T23:21:06.193Z,13.80
2023-05-05T23:23:33.485Z,13.80
2023-05-05T23:26:00.900Z,13.80
2023-05-05T23:28:28.273Z,13.80
2023-05-05T23:30:55.782Z,13.80
2023-05-05T23:33:23.140Z,13.70
2023-05-05T23:35:50.603Z,13.70
2023-05-05T23:38:18.030Z,13.70
2023-05-05T23:40:45.326Z,13.60
2023-05-05T23:43:12.857Z,13.60
2023-05-05T23:45:40.416Z,13.70
2023-05-05T23:48:07.717Z,13.60
2023-05-05T23:50:35.220Z,13.60
2023-05-05T23:53:02.634Z,13.50
2023-05-05T23:55:29.931Z,13.50
2023-05-05T23:57:57.928Z,13.40
